createdAt,value
2023-04-23T00:08:21.204Z,14.32
2023-04-23T00:23:11.793Z,14.20
2023-04-23T00:38:02.973Z,13.99
2023-04-23T00:52:56.309Z,13.96
2023-04-23T01:07:49.345Z,13.91
2023-04-23T01:22:40.767Z,13.85
2023-04-23T01:37:32.566Z,13.83
2023-04-23T01:52:25.301Z,13.79
2023-04-23T02:07:17.528Z,13.78
2023-04-23T02:22:09.820Z,13.73
2023-04-23T02:37:02.368Z,13.74
2023-04-23T02:51:54.903Z,13.79
2023-04-23T03:09:20.187Z,13.79
2023-04-23T03:11:46.856Z,13.77
2023-04-23T03:40:56.652Z,13.62
2023-04-23T04:10:41.460Z,13.48
2023-04-23T04:25:32.637Z,13.41
2023-04-23T04:40:24.204Z,13.41
2023-04-23T04:55:16.317Z,13.38
2023-04-23T05:25:16.849Z,13.43
2023-04-23T07:39:56.919Z,15.28
2023-04-23T07:54:50.301Z,15.58
2023-04-23T09:09:16.691Z,17.01
2023-04-23T09:24:11.885Z,17.23
2023-04-23T09:39:03.745Z,17.36
2023-04-23T09:53:56.727Z,17.65
2023-04-23T10:08:49.656Z,18.22
2023-04-23T10:23:42.576Z,18.28
2023-04-23T10:38:35.233Z,18.43
2023-04-23T10:53:27.101Z,18.42
2023-04-23T11:08:20.251Z,18.75
2023-04-23T11:23:11.486Z,18.92
2023-04-23T11:38:03.849Z,19.63
2023-04-23T11:52:57.361Z,19.74
2023-04-23T12:07:49.335Z,19.82
2023-04-23T12:22:40.199Z,20.38
2023-04-23T12:37:32.771Z,20.87
2023-04-23T12:52:25.279Z,21.50
2023-04-23T13:07:17.898Z,21.68
2023-04-23T13:22:11.887Z,22.55
2023-04-23T13:37:05.998Z,22.95
2023-04-23T13:51:59.466Z,23.10
2023-04-23T14:06:50.706Z,22.32
2023-04-23T14:21:42.816Z,22.30
2023-04-23T14:36:34.561Z,22.00
2023-04-23T14:51:27.901Z,22.27
2023-04-23T15:36:03.133Z,21.33
2023-04-23T15:50:48.588Z,18.32
2023-04-23T16:05:35.418Z,17.00
2023-04-23T16:50:10.407Z,17.01
2023-04-23T17:51:05.009Z,16.84
2023-04-23T18:06:04.560Z,16.79
2023-04-23T18:20:56.401Z,16.68
2023-04-23T18:35:49.024Z,16.51
2023-04-23T18:50:42.879Z,15.80
2023-04-23T19:05:34.338Z,15.21
2023-04-23T19:20:24.230Z,14.78
2023-04-23T19:35:15.079Z,14.40
2023-04-23T19:50:07.400Z,14.16
2023-04-23T20:04:59.128Z,13.94
2023-04-23T20:19:49.806Z,13.83
2023-04-23T20:34:40.349Z,13.69
2023-04-23T20:49:31.626Z,13.61
2023-04-23T21:04:24.165Z,13.55
2023-04-23T21:34:22.901Z,13.47
2023-04-23T21:49:13.057Z,13.36
2023-04-23T22:04:13.852Z,13.37
2023-04-23T22:19:04.421Z,13.32
2023-04-23T22:33:56.516Z,13.33
2023-04-23T22:48:49.943Z,13.35
2023-04-23T23:03:39.811Z,13.38
2023-04-23T23:18:31.666Z,13.30
2023-04-23T23:33:23.768Z,13.27
2023-04-23T23:48:14.330Z,13.17
